Cranes Station, MA

6:35 AM EST on January 19, 2017 (GMT -0500)
RT 495 - Plain Street Overpass Area | | Change Station
Active Advisory: Special Statement

Elev 100 ft 41.97 °N, 71.16 °W | Updated 9 seconds ago

Overcast
Overcast
33.1 °F
Feels Like 33 °F
N
0.0
Wind Variable Wind from South
Gusts 0.0 mph

Today
High -- | Low -- °F
--% Chance of Precip.
Yesterday
High -- | Low -- °F
Precip. -- in
Pressure 30.00 in
Visibility 6.0 miles
Clouds Mostly Cloudy 400 ft
Overcast 2400 ft
Windchill 33 °F
Dew Point 31 °F
Humidity 92%
Rainfall 0.00 in
Snow Depth Not available.
7:07 AM 4:43 PM
Waning Gibbous, 54% visible
SPECI KTAN 191105Z AUTO 31003KT 6SM BR BKN004 OVC024 01/00 A3000 RMK AO2 T00110000
Pressure 30.00 in
Visibility 6.0 miles
Clouds Mostly Cloudy 400 ft
Overcast 2400 ft
Windchill 33 °F
Dew Point 31 °F
Humidity 92%
Rainfall 0.00 in
Snow Depth Not available.
7:07 AM 4:43 PM
Waning Gibbous, 54% visible
SPECI KTAN 191105Z AUTO 31003KT 6SM BR BKN004 OVC024 01/00 A3000 RMK AO2 T00110000

Get Your Daily Forecast Email!

Thanks for signing up!

Be on the lookout for a verification email in your inbox.

You'll start receiving the daily forecast at 8 AM.

×

10-Day Weather Forecast

Almanac

Astronomy

Jan. 19, 2017 Rise Set
Actual Time
Civil Twilight
Nautical Twilight
Astronomical Twilight
Moon
Length of Visible Light
Length of Day
Tomorrow will be .
, % of the Moon is Illuminated

Today's Extremes

State Highs State Lows

Community

WunderPhotos

Upload Photos

1,962,540 photos uploaded!

WunderBlog® & News

Nearby

Air Quality

  Air Quality AQ Index Pollutant
Not available.

Snow Depth

Station Depth Elevation

Earthquake Activity

City Distance Mag. Time & Date
Minimum magnitude displayed is 2.5.

Coastal Water Temperatures

Place Temperature

Stations

Nearby Weather Stations

Station Location Temp. Windchill Dew Point Humidity Wind Precip. Elev Updated Type
                   

Watches & Warnings

Special Statement
Issued: 12:08 AM EST Jan. 19, 2017 – National Weather Service

... Hazardous travel conditions with black ice...

Wherever temperatures are at or below freezing into the morning
hours there will likely be black ice resulting in hazardous icy
conditions particularly on untreated surfaces, bridges and
overpasses. Please exercise caution when heading out.


Sipprell


1208 am EST Thu Jan 19 2017

... Hazardous travel conditions with black ice...

Wherever temperatures are at or below freezing into the morning
hours there will likely be black ice resulting in hazardous icy
conditions particularly on untreated surfaces, bridges and
overpasses. Please exercise caution when heading out.


Sipprell

1208 am EST Thu Jan 19 2017

... Hazardous travel conditions with black ice...

Wherever temperatures are at or below freezing into the morning
hours there will likely be black ice resulting in hazardous icy
conditions particularly on untreated surfaces, bridges and
overpasses. Please exercise caution when heading out.


Sipprell